Time;durP1;ratioP1;P1;durP2;ratioP2;P2;SDS_P1;SDS_P2;PMS_P1;PMS_P2;Temp;Humidity;BMP_temperature;BMP_pressure;BME280_temperature;BME280_humidity;BME280_pressure;Samples;Min_cycle;Max_cycle;Signal;HPM_P1;HPM_P2
2023/02/17 00:00:06;;;;;;;;;;;;;;;10.90;nan;101308.53;4987255;28;19933;-87
2023/02/17 00:02:32;;;;;;;;;;;;;;;10.86;nan;101301.81;5002445;28;20014;-85
2023/02/17 00:04:57;;;;;;;;;;;;;;;10.89;nan;101300.72;4993649;28;19991;-86
2023/02/17 00:07:22;;;;;;;;;;;;;;;10.88;nan;101291.94;4974836;28;19930;-85
2023/02/17 00:09:47;;;;;;;;;;;;;;;10.90;nan;101297.13;4989343;28;20377;-85
2023/02/17 00:12:12;;;;;;;;;;;;;;;10.96;nan;101304.50;4969046;28;19922;-86
2023/02/17 00:14:38;;;;;;;;;;;;;;;10.95;nan;101298.38;4985208;28;19947;-85
2023/02/17 00:17:03;;;;;;;;;;;;;;;10.95;nan;101295.72;4981789;28;19965;-85
2023/02/17 00:19:28;;;;;;;;;;;;;;;10.96;nan;101293.91;4975979;28;19932;-86
2023/02/17 00:21:58;;;;;;;;;;;;;;;10.78;nan;101288.44;4977689;28;19924;-86
2023/02/17 00:24:24;;;;;;;;;;;;;;;10.72;nan;101294.25;4977457;28;19918;-85
2023/02/17 00:26:49;;;;;;;;;;;;;;;10.64;nan;101287.00;4996028;28;19929;-87
2023/02/17 00:29:15;;;;;;;;;;;;;;;10.68;nan;101293.69;4978528;28;19918;-86
2023/02/17 00:31:40;;;;;;;;;;;;;;;10.73;nan;101302.06;4973475;28;19960;-87
2023/02/17 00:34:05;;;;;;;;;;;;;;;10.77;nan;101292.91;4981902;28;20031;-86
2023/02/17 00:36:30;;;;;;;;;;;;;;;10.81;nan;101291.63;4978202;28;19925;-87
2023/02/17 00:38:56;;;;;;;;;;;;;;;10.84;nan;101291.38;4967255;28;19926;-86
2023/02/17 00:41:22;;;;;;;;;;;;;;;10.83;nan;101302.09;4985011;28;20004;-88
2023/02/17 00:43:47;;;;;;;;;;;;;;;10.73;nan;101304.72;4990062;28;19925;-85
2023/02/17 00:46:13;;;;;;;;;;;;;;;10.68;nan;101303.41;5003104;28;19945;-85
2023/02/17 00:48:39;;;;;;;;;;;;;;;10.67;nan;101299.94;4977317;28;19960;-87
2023/02/17 00:51:04;;;;;;;;;;;;;;;10.68;nan;101300.78;4976115;28;19914;-86
2023/02/17 00:53:30;;;;;;;;;;;;;;;10.62;nan;101302.16;4976156;28;20430;-86
2023/02/17 00:55:55;;;;;;;;;;;;;;;10.68;nan;101293.69;4976500;28;20015;-87
2023/02/17 00:58:20;;;;;;;;;;;;;;;10.67;nan;101294.66;4976214;28;19913;-86
2023/02/17 01:00:45;;;;;;;;;;;;;;;10.70;nan;101298.84;4973232;28;20012;-86
2023/02/17 01:03:11;;;;;;;;;;;;;;;10.69;nan;101290.06;4974929;28;19914;-87
2023/02/17 01:05:43;;;;;;;;;;;;;;;10.67;nan;101289.34;4973592;28;20371;-87
2023/02/17 01:08:08;;;;;;;;;;;;;;;10.67;nan;101299.94;4972747;28;19922;-87
2023/02/17 01:10:37;;;;;;;;;;;;;;;10.64;nan;101294.94;4975027;28;19918;-86
2023/02/17 01:13:02;;;;;;;;;;;;;;;10.52;nan;101294.19;4974893;28;19941;-87
2023/02/17 01:15:27;;;;;;;;;;;;;;;10.43;nan;101294.13;4984374;28;20321;-86
2023/02/17 01:17:53;;;;;;;;;;;;;;;10.46;nan;101299.16;4976714;28;19917;-87
2023/02/17 01:20:18;;;;;;;;;;;;;;;10.47;nan;101284.97;4976343;28;19920;-87
2023/02/17 01:22:43;;;;;;;;;;;;;;;10.46;nan;101285.94;4976635;28;19914;-88
2023/02/17 01:25:08;;;;;;;;;;;;;;;10.47;nan;101280.53;4994361;28;19963;-87
2023/02/17 01:27:34;;;;;;;;;;;;;;;10.46;nan;101281.47;4976104;28;19917;-88
2023/02/17 01:29:59;;;;;;;;;;;;;;;10.51;nan;101283.72;4976840;28;20059;-87
2023/02/17 01:32:28;;;;;;;;;;;;;;;10.51;nan;101278.44;4993369;28;19949;-88
2023/02/17 01:34:53;;;;;;;;;;;;;;;10.53;nan;101281.78;4994393;28;19914;-87
2023/02/17 01:37:18;;;;;;;;;;;;;;;10.51;nan;101279.28;4993681;28;19920;-86
2023/02/17 01:39:46;;;;;;;;;;;;;;;10.56;nan;101281.53;4994021;28;19913;-87
2023/02/17 01:42:19;;;;;;;;;;;;;;;10.54;nan;101286.13;4975139;28;19913;-88
2023/02/17 01:45:03;;;;;;;;;;;;;;;10.56;nan;101281.53;4965691;28;20016;-88
2023/02/17 01:47:28;;;;;;;;;;;;;;;10.58;nan;101287.50;4974906;28;19921;-88
2023/02/17 01:49:54;;;;;;;;;;;;;;;10.57;nan;101283.22;4972217;28;19920;-89
2023/02/17 01:52:22;;;;;;;;;;;;;;;10.58;nan;101279.56;4996620;28;19918;-88
2023/02/17 01:55:00;;;;;;;;;;;;;;;10.60;nan;101277.63;4977362;28;20379;-88
2023/02/17 01:57:27;;;;;;;;;;;;;;;10.59;nan;101275.97;4973044;28;19914;-88
2023/02/17 01:59:52;;;;;;;;;;;;;;;10.61;nan;101266.09;4956565;28;19935;-88
2023/02/17 02:02:18;;;;;;;;;;;;;;;10.61;nan;101266.09;4954522;28;19924;-88
2023/02/17 02:04:45;;;;;;;;;;;;;;;10.64;nan;101268.47;4955741;28;20005;-86
2023/02/17 02:07:16;;;;;;;;;;;;;;;10.61;nan;101261.66;4971905;28;20362;-87
2023/02/17 02:09:47;;;;;;;;;;;;;;;10.61;nan;101266.09;4956134;28;19914;-87
2023/02/17 02:12:23;;;;;;;;;;;;;;;10.59;nan;101253.00;4973452;28;19961;-87
2023/02/17 02:14:55;;;;;;;;;;;;;;;10.59;nan;101263.59;4971939;28;20383;-87
2023/02/17 02:17:20;;;;;;;;;;;;;;;10.58;nan;101261.06;4973956;28;19941;-86
2023/02/17 02:20:04;;;;;;;;;;;;;;;10.55;nan;101263.97;4991951;28;19918;-86
2023/02/17 02:22:47;;;;;;;;;;;;;;;10.52;nan;101258.97;4992145;28;19924;-87
2023/02/17 02:25:18;;;;;;;;;;;;;;;10.49;nan;101257.44;4974490;28;19914;-87
2023/02/17 02:27:43;;;;;;;;;;;;;;;10.45;nan;101255.19;4992207;28;20560;-87
2023/02/17 02:30:14;;;;;;;;;;;;;;;10.50;nan;101252.97;4994229;28;19914;-86
2023/02/17 02:32:48;;;;;;;;;;;;;;;10.47;nan;101259.38;4987685;28;19914;-85
2023/02/17 02:35:35;;;;;;;;;;;;;;;10.40;nan;101251.13;4964410;28;19914;-87
2023/02/17 02:38:19;;;;;;;;;;;;;;;10.38;nan;101249.59;4965027;28;19920;-85
2023/02/17 02:40:48;;;;;;;;;;;;;;;10.36;nan;101246.22;4982420;28;19949;-86
2023/02/17 02:43:14;;;;;;;;;;;;;;;10.34;nan;101241.06;4999841;28;19921;-88
2023/02/17 02:45:39;;;;;;;;;;;;;;;10.29;nan;101235.34;4999132;28;20406;-86
2023/02/17 02:48:04;;;;;;;;;;;;;;;10.28;nan;101232.81;4982012;28;19917;-86
2023/02/17 02:50:32;;;;;;;;;;;;;;;10.21;nan;101222.78;4991002;28;19920;-86
2023/02/17 02:52:57;;;;;;;;;;;;;;;10.26;nan;101224.19;4979380;28;19928;-86
2023/02/17 02:55:28;;;;;;;;;;;;;;;10.24;nan;101219.03;4984629;28;19913;-87
2023/02/17 02:58:12;;;;;;;;;;;;;;;10.25;nan;101220.72;4982588;28;19914;-86
2023/02/17 03:00:44;;;;;;;;;;;;;;;10.25;nan;101219.84;4983774;28;19936;-88
2023/02/17 03:03:12;;;;;;;;;;;;;;;10.23;nan;101209.44;4982403;28;19959;-85
2023/02/17 03:06:03;;;;;;;;;;;;;;;10.26;nan;101216.25;4987008;28;19963;-86
2023/02/17 03:08:37;;;;;;;;;;;;;;;10.28;nan;101206.38;4998860;28;19918;-87
2023/02/17 03:11:02;;;;;;;;;;;;;;;10.28;nan;101209.91;4980222;28;19925;-87
2023/02/17 03:13:28;;;;;;;;;;;;;;;10.28;nan;101203.75;4982760;28;19936;-87
2023/02/17 03:15:53;;;;;;;;;;;;;;;10.25;nan;101198.72;4982976;28;19913;-86
2023/02/17 03:18:18;;;;;;;;;;;;;;;10.26;nan;101197.75;5000428;28;19913;-86
2023/02/17 03:20:51;;;;;;;;;;;;;;;10.27;nan;101208.16;5002157;28;19918;-86
2023/02/17 03:23:20;;;;;;;;;;;;;;;10.28;nan;101201.97;4989141;28;19922;-88
2023/02/17 03:25:46;;;;;;;;;;;;;;;10.27;nan;101205.53;4979881;28;19924;-85
2023/02/17 03:28:11;;;;;;;;;;;;;;;10.29;nan;101203.63;4976411;28;19941;-85
2023/02/17 03:30:37;;;;;;;;;;;;;;;10.31;nan;101196.41;4975507;28;20380;-84
2023/02/17 03:33:02;;;;;;;;;;;;;;;10.33;nan;101197.09;4994897;28;19949;-85
2023/02/17 03:35:27;;;;;;;;;;;;;;;10.34;nan;101205.88;4994392;28;19997;-86
2023/02/17 03:37:52;;;;;;;;;;;;;;;10.38;nan;101194.91;4976733;28;19918;-87
2023/02/17 03:40:17;;;;;;;;;;;;;;;10.47;nan;101192.44;4976151;28;19917;-86
2023/02/17 03:42:43;;;;;;;;;;;;;;;10.46;nan;101194.22;4961236;28;19914;-85
2023/02/17 03:45:08;;;;;;;;;;;;;;;10.51;nan;101185.88;4977016;28;19914;-85
2023/02/17 03:47:33;;;;;;;;;;;;;;;10.51;nan;101191.16;4990157;28;20235;-85
2023/02/17 03:49:59;;;;;;;;;;;;;;;10.51;nan;101186.75;4972471;28;19914;-86
2023/02/17 03:52:24;;;;;;;;;;;;;;;10.53;nan;101192.72;4997770;28;19921;-86
2023/02/17 03:54:49;;;;;;;;;;;;;;;10.54;nan;101196.22;4977714;28;20397;-85
2023/02/17 03:57:14;;;;;;;;;;;;;;;10.54;nan;101202.34;4969666;28;19921;-86
2023/02/17 03:59:39;;;;;;;;;;;;;;;10.54;nan;101197.03;4994507;28;19913;-85
2023/02/17 04:02:04;;;;;;;;;;;;;;;10.53;nan;101199.81;4975566;28;20326;-86
2023/02/17 04:04:30;;;;;;;;;;;;;;;10.53;nan;101195.34;4957316;28;19914;-85
2023/02/17 04:06:55;;;;;;;;;;;;;;;10.54;nan;101201.50;4971065;28;19906;-87
2023/02/17 04:09:20;;;;;;;;;;;;;;;10.50;nan;101208.84;4966288;28;19925;-85
2023/02/17 04:11:45;;;;;;;;;;;;;;;10.47;nan;101205.66;4979547;28;19948;-86
2023/02/17 04:14:10;;;;;;;;;;;;;;;10.44;nan;101206.75;4980760;28;19914;-88
2023/02/17 04:16:38;;;;;;;;;;;;;;;10.45;nan;101211.06;4988142;28;19913;-89
2023/02/17 04:19:04;;;;;;;;;;;;;;;10.41;nan;101217.59;5011289;28;19913;-87
2023/02/17 04:21:29;;;;;;;;;;;;;;;10.40;nan;101214.13;5001817;28;19914;-88
2023/02/17 04:23:54;;;;;;;;;;;;;;;10.36;nan;101214.50;4997901;28;19912;-86
2023/02/17 04:26:19;;;;;;;;;;;;;;;10.36;nan;101217.97;4988904;28;19918;-87
2023/02/17 04:28:44;;;;;;;;;;;;;;;10.37;nan;101226.78;4984407;28;19917;-86
2023/02/17 04:31:10;;;;;;;;;;;;;;;10.34;nan;101219.91;4984000;28;19914;-87
2023/02/17 04:33:36;;;;;;;;;;;;;;;10.32;nan;101232.47;5011412;28;19961;-86
2023/02/17 04:36:01;;;;;;;;;;;;;;;10.27;nan;101231.97;5001534;28;19928;-87
2023/02/17 04:38:28;;;;;;;;;;;;;;;10.29;nan;101229.22;4990036;28;19902;-87
2023/02/17 04:40:54;;;;;;;;;;;;;;;10.27;nan;101239.91;5003661;28;20402;-86
2023/02/17 04:43:19;;;;;;;;;;;;;;;10.26;nan;101229.47;4982665;28;19914;-86
2023/02/17 04:45:44;;;;;;;;;;;;;;;10.29;nan;101234.50;5000044;28;19968;-86
2023/02/17 04:48:10;;;;;;;;;;;;;;;10.25;nan;101220.72;4983636;28;20371;-86
2023/02/17 04:50:35;;;;;;;;;;;;;;;10.25;nan;101228.63;4984534;28;20005;-87
2023/02/17 04:53:00;;;;;;;;;;;;;;;10.26;nan;101225.00;5002425;28;19945;-87
2023/02/17 04:55:25;;;;;;;;;;;;;;;10.23;nan;101235.88;4998386;28;19924;-86
2023/02/17 04:57:50;;;;;;;;;;;;;;;10.23;nan;101225.28;4984307;28;19935;-88
2023/02/17 05:00:16;;;;;;;;;;;;;;;10.20;nan;101226.41;4997626;28;19918;-86
2023/02/17 05:02:41;;;;;;;;;;;;;;;10.21;nan;101225.41;4964484;28;20378;-87
2023/02/17 05:05:06;;;;;;;;;;;;;;;10.21;nan;101228.06;4981951;28;19924;-87
2023/02/17 05:07:31;;;;;;;;;;;;;;;10.21;nan;101225.41;4979524;28;19926;-87
2023/02/17 05:09:57;;;;;;;;;;;;;;;10.17;nan;101225.81;4964512;28;19914;-87
2023/02/17 05:12:22;;;;;;;;;;;;;;;10.17;nan;101228.44;4975932;28;19913;-87
2023/02/17 05:14:47;;;;;;;;;;;;;;;10.16;nan;101219.69;4982034;28;19984;-88
2023/02/17 05:17:12;;;;;;;;;;;;;;;10.16;nan;101224.16;4982942;28;20617;-87
2023/02/17 05:19:37;;;;;;;;;;;;;;;10.14;nan;101220.78;4982868;28;19914;-87
2023/02/17 05:22:02;;;;;;;;;;;;;;;10.17;nan;101224.00;4982592;28;20397;-88
2023/02/17 05:24:28;;;;;;;;;;;;;;;10.13;nan;101227.03;5000037;28;20005;-88
2023/02/17 05:26:53;;;;;;;;;;;;;;;10.14;nan;101231.38;4983624;28;19917;-87
2023/02/17 05:29:18;;;;;;;;;;;;;;;10.17;nan;101228.44;4982934;28;19914;-86
2023/02/17 05:31:43;;;;;;;;;;;;;;;10.16;nan;101230.25;4982069;28;20286;-87
2023/02/17 05:34:08;;;;;;;;;;;;;;;10.09;nan;101231.75;4981243;28;19914;-87
2023/02/17 05:36:34;;;;;;;;;;;;;;;10.09;nan;101231.75;5000010;28;20004;-87
2023/02/17 05:38:59;;;;;;;;;;;;;;;10.10;nan;101227.31;4999652;28;19913;-87
2023/02/17 05:41:24;;;;;;;;;;;;;;;10.11;nan;101234.28;4998634;28;19917;-87
2023/02/17 05:43:49;;;;;;;;;;;;;;;10.11;nan;101229.00;4999860;28;19949;-86
2023/02/17 05:46:14;;;;;;;;;;;;;;;10.11;nan;101232.47;4998433;28;19936;-87
2023/02/17 05:48:40;;;;;;;;;;;;;;;10.10;nan;101222.84;4981608;28;19929;-87
2023/02/17 05:51:05;;;;;;;;;;;;;;;10.11;nan;101226.34;4982212;28;19920;-87
2023/02/17 05:53:30;;;;;;;;;;;;;;;10.09;nan;101234.41;4982492;28;19914;-85
2023/02/17 05:55:55;;;;;;;;;;;;;;;10.08;nan;101226.59;5000903;28;19981;-86
2023/02/17 05:58:20;;;;;;;;;;;;;;;10.08;nan;101229.22;5001533;28;20426;-87
2023/02/17 06:00:46;;;;;;;;;;;;;;;10.08;nan;101238.03;4993896;28;19918;-86
2023/02/17 06:03:11;;;;;;;;;;;;;;;10.08;nan;101232.75;4976376;28;20001;-87
2023/02/17 06:05:37;;;;;;;;;;;;;;;10.08;nan;101240.66;4983670;28;19964;-86
2023/02/17 06:08:02;;;;;;;;;;;;;;;10.06;nan;101237.31;4982864;28;19918;-87
2023/02/17 06:10:27;;;;;;;;;;;;;;;10.07;nan;101240.78;4996782;28;19920;-87
2023/02/17 06:12:52;;;;;;;;;;;;;;;10.08;nan;101245.09;4997319;28;19928;-86
2023/02/17 06:15:18;;;;;;;;;;;;;;;10.05;nan;101253.28;4979743;28;20304;-86
2023/02/17 06:17:43;;;;;;;;;;;;;;;10.05;nan;101255.94;4997451;28;19913;-86
2023/02/17 06:20:08;;;;;;;;;;;;;;;10.03;nan;101260.50;4997323;28;19913;-86
2023/02/17 06:22:34;;;;;;;;;;;;;;;10.03;nan;101258.69;4979251;28;19917;-87
2023/02/17 06:24:59;;;;;;;;;;;;;;;10.02;nan;101258.84;4976514;28;20084;-86
2023/02/17 06:27:24;;;;;;;;;;;;;;;9.99;nan;101263.41;4995718;28;19990;-87
2023/02/17 06:29:49;;;;;;;;;;;;;;;10.00;nan;101259.78;4996708;28;19921;-85
2023/02/17 06:32:15;;;;;;;;;;;;;;;10.00;nan;101254.50;4977513;28;19913;-86
2023/02/17 06:34:40;;;;;;;;;;;;;;;10.05;nan;101250.63;4980974;28;20479;-85
2023/02/17 06:37:05;;;;;;;;;;;;;;;10.03;nan;101249.94;4975258;28;19924;-86
2023/02/17 06:39:30;;;;;;;;;;;;;;;10.02;nan;101251.75;4975763;28;20287;-86
2023/02/17 06:41:56;;;;;;;;;;;;;;;10.04;nan;101246.34;4975491;28;19917;-85
2023/02/17 06:44:21;;;;;;;;;;;;;;;10.02;nan;101243.81;4974575;28;19922;-86
2023/02/17 06:46:46;;;;;;;;;;;;;;;10.00;nan;101248.38;4974804;28;19940;-86
2023/02/17 06:49:12;;;;;;;;;;;;;;;9.98;nan;101239.75;4975307;28;20368;-86
2023/02/17 06:51:37;;;;;;;;;;;;;;;10.00;nan;101248.38;4991266;28;20464;-85
2023/02/17 06:54:02;;;;;;;;;;;;;;;9.97;nan;101246.84;4969696;28;20763;-85
2023/02/17 06:56:27;;;;;;;;;;;;;;;9.96;nan;101242.53;4975262;28;19925;-86
2023/02/17 06:58:53;;;;;;;;;;;;;;;9.96;nan;101257.53;4972976;28;20552;-86
2023/02/17 07:01:20;;;;;;;;;;;;;;;9.98;nan;101250.31;4970023;28;19925;-86
2023/02/17 07:03:45;;;;;;;;;;;;;;;10.00;nan;101253.66;4977038;28;19921;-87
2023/02/17 07:06:17;;;;;;;;;;;;;;;10.02;nan;101253.56;4980027;28;19941;-87
2023/02/17 07:08:43;;;;;;;;;;;;;;;10.00;nan;101265.06;4984831;28;19976;-86
2023/02/17 07:11:10;;;;;;;;;;;;;;;9.99;nan;101268.69;4994897;28;19941;-87
2023/02/17 07:13:35;;;;;;;;;;;;;;;9.98;nan;101274.94;4984977;28;19924;-87
2023/02/17 07:16:01;;;;;;;;;;;;;;;9.98;nan;101280.22;4970352;28;20008;-86
2023/02/17 07:18:29;;;;;;;;;;;;;;;9.96;nan;101287.47;4974126;28;19988;-86
2023/02/17 07:20:55;;;;;;;;;;;;;;;9.97;nan;101288.28;4969823;28;20315;-87
2023/02/17 07:23:20;;;;;;;;;;;;;;;9.98;nan;101284.66;4964555;28;19918;-87
2023/02/17 07:25:46;;;;;;;;;;;;;;;9.98;nan;101296.06;4975401;28;19959;-87
2023/02/17 07:28:14;;;;;;;;;;;;;;;9.99;nan;101297.75;4976033;28;20371;-87
2023/02/17 07:30:40;;;;;;;;;;;;;;;10.02;nan;101298.47;4972782;28;19975;-86
2023/02/17 07:33:06;;;;;;;;;;;;;;;9.97;nan;101304.13;4978219;28;20367;-86
2023/02/17 07:35:32;;;;;;;;;;;;;;;9.96;nan;101303.31;4976232;28;19918;-87
2023/02/17 07:37:58;;;;;;;;;;;;;;;9.97;nan;101304.97;4976270;28;19918;-86
2023/02/17 07:40:24;;;;;;;;;;;;;;;10.00;nan;101311.81;4984155;28;19917;-87
2023/02/17 07:42:49;;;;;;;;;;;;;;;10.03;nan;101314.19;4981956;28;19925;-86
2023/02/17 07:45:17;;;;;;;;;;;;;;;10.00;nan;101325.00;4979802;28;19918;-86
2023/02/17 07:47:42;;;;;;;;;;;;;;;10.02;nan;101314.31;4969810;28;20298;-86
2023/02/17 07:50:08;;;;;;;;;;;;;;;10.01;nan;101329.34;4977587;28;19917;-87
2023/02/17 07:52:34;;;;;;;;;;;;;;;10.03;nan;101314.19;4977490;28;19918;-86
2023/02/17 07:54:59;;;;;;;;;;;;;;;10.04;nan;101307.13;4982394;28;19964;-87
2023/02/17 07:57:24;;;;;;;;;;;;;;;10.05;nan;101312.25;4969527;28;19917;-87
2023/02/17 07:59:50;;;;;;;;;;;;;;;10.06;nan;101310.44;4974312;28;19929;-87
2023/02/17 08:02:18;;;;;;;;;;;;;;;10.09;nan;101303.09;4956045;28;20127;-87
2023/02/17 08:04:46;;;;;;;;;;;;;;;10.07;nan;101304.19;4972665;28;19977;-87
2023/02/17 08:07:14;;;;;;;;;;;;;;;10.09;nan;101304.91;4955611;28;20372;-87
2023/02/17 08:15:08;;;;;;;;;;;;;;;10.13;nan;101307.16;4992020;28;19945;-86
2023/02/17 08:17:33;;;;;;;;;;;;;;;10.15;nan;101299.09;4975130;28;19914;-87
2023/02/17 08:19:59;;;;;;;;;;;;;;;10.19;nan;101304.00;4966138;28;19913;-86
2023/02/17 08:22:24;;;;;;;;;;;;;;;10.16;nan;101301.63;4974966;28;19917;-87
2023/02/17 08:24:50;;;;;;;;;;;;;;;10.20;nan;101315.41;4975855;28;19928;-87
2023/02/17 08:27:16;;;;;;;;;;;;;;;10.24;nan;101311.53;4976299;28;19917;-87
2023/02/17 08:29:42;;;;;;;;;;;;;;;10.26;nan;101317.53;4967088;28;20393;-87
2023/02/17 08:32:10;;;;;;;;;;;;;;;10.26;nan;101314.88;4975794;28;19918;-87
2023/02/17 08:34:36;;;;;;;;;;;;;;;10.30;nan;101313.69;4975684;28;19914;-87
2023/02/17 08:37:02;;;;;;;;;;;;;;;10.33;nan;101326.66;4967172;28;19921;-87
2023/02/17 08:39:27;;;;;;;;;;;;;;;10.35;nan;101311.50;4976006;28;19914;-87
2023/02/17 08:41:56;;;;;;;;;;;;;;;10.30;nan;101311.06;4992337;28;19921;-87
2023/02/17 08:44:21;;;;;;;;;;;;;;;10.35;nan;101314.13;4975607;28;19921;-87
2023/02/17 08:46:48;;;;;;;;;;;;;;;10.36;nan;101321.09;4994942;28;19921;-87
2023/02/17 08:49:14;;;;;;;;;;;;;;;10.39;nan;101314.69;4978649;28;20063;-87
2023/02/17 08:51:45;;;;;;;;;;;;;;;10.43;nan;101320.59;4996112;28;20034;-87
2023/02/17 08:54:14;;;;;;;;;;;;;;;10.41;nan;101316.25;4975683;28;19988;-87
2023/02/17 08:56:42;;;;;;;;;;;;;;;10.41;nan;101315.41;4976489;28;19925;-87
2023/02/17 08:59:11;;;;;;;;;;;;;;;10.42;nan;101319.75;4977715;28;19914;-87
2023/02/17 09:01:39;;;;;;;;;;;;;;;10.44;nan;101304.59;4977618;28;19956;-87
2023/02/17 09:04:05;;;;;;;;;;;;;;;10.51;nan;101296.94;4980290;28;19918;-87
2023/02/17 09:06:57;;;;;;;;;;;;;;;10.54;nan;101297.53;4984476;28;19986;-87
2023/02/17 09:09:30;;;;;;;;;;;;;;;10.52;nan;101304.75;4988756;28;19921;-87
2023/02/17 09:11:56;;;;;;;;;;;;;;;10.55;nan;101309.78;4993207;28;19913;-87
2023/02/17 09:14:24;;;;;;;;;;;;;;;10.59;nan;101302.44;4978491;28;19916;-87
2023/02/17 09:16:50;;;;;;;;;;;;;;;10.61;nan;101311.06;4979423;28;19914;-88
2023/02/17 09:19:15;;;;;;;;;;;;;;;10.61;nan;101311.91;4973398;28;19970;-87
2023/02/17 09:21:41;;;;;;;;;;;;;;;10.70;nan;101302.34;4978293;28;19924;-87
2023/02/17 09:24:09;;;;;;;;;;;;;;;10.64;nan;101297.56;4970019;28;20276;-87
2023/02/17 09:26:35;;;;;;;;;;;;;;;10.59;nan;101297.13;4977298;28;19918;-87
2023/02/17 09:29:02;;;;;;;;;;;;;;;10.58;nan;101308.66;4977625;28;20539;-87
2023/02/17 09:31:28;;;;;;;;;;;;;;;10.60;nan;101309.38;4977165;28;19914;-87
2023/02/17 09:34:02;;;;;;;;;;;;;;;10.60;nan;101307.56;4977799;28;19914;-88
2023/02/17 09:36:36;;;;;;;;;;;;;;;10.62;nan;101310.91;4971715;28;19920;-87
2023/02/17 09:39:01;;;;;;;;;;;;;;;10.52;nan;101302.13;4981161;28;19914;-87
2023/02/17 09:41:36;;;;;;;;;;;;;;;10.43;nan;101313.47;4998157;28;19928;-87
2023/02/17 09:44:04;;;;;;;;;;;;;;;10.33;nan;101302.84;4997081;28;20520;-88
2023/02/17 09:46:31;;;;;;;;;;;;;;;10.25;nan;101304.44;4985616;28;19929;-88
2023/02/17 09:49:06;;;;;;;;;;;;;;;10.18;nan;101297.03;4991077;28;20405;-86
2023/02/17 09:51:34;;;;;;;;;;;;;;;10.14;nan;101306.19;4986112;28;19918;-87
2023/02/17 09:54:05;;;;;;;;;;;;;;;10.11;nan;101305.63;4979078;28;20012;-88
2023/02/17 09:56:41;;;;;;;;;;;;;;;10.08;nan;101305.88;4967011;28;19917;-87
2023/02/17 09:59:33;;;;;;;;;;;;;;;10.13;nan;101304.53;4976160;28;19918;-87
2023/02/17 10:02:04;;;;;;;;;;;;;;;10.14;nan;101302.72;4973449;28;20012;-88
2023/02/17 10:04:36;;;;;;;;;;;;;;;10.15;nan;101307.88;4995901;28;19917;-88
2023/02/17 10:07:13;;;;;;;;;;;;;;;10.18;nan;101318.19;4963440;28;20407;-87
2023/02/17 10:09:54;;;;;;;;;;;;;;;10.17;nan;101316.50;4956923;28;19918;-87
2023/02/17 10:12:23;;;;;;;;;;;;;;;10.17;nan;101323.59;4974973;28;20012;-88
2023/02/17 10:15:03;;;;;;;;;;;;;;;10.21;nan;101320.56;4975761;28;19952;-88
2023/02/17 10:17:31;;;;;;;;;;;;;;;10.25;nan;101325.56;4973727;28;19925;-88
2023/02/17 10:20:02;;;;;;;;;;;;;;;10.32;nan;101332.06;4967622;28;19933;-87
2023/02/17 10:22:29;;;;;;;;;;;;;;;10.39;nan;101326.13;4946875;28;19932;-88
2023/02/17 10:24:56;;;;;;;;;;;;;;;10.45;nan;101330.06;4974418;28;19918;-88
2023/02/17 10:27:42;;;;;;;;;;;;;;;10.56;nan;101332.63;4971280;28;19922;-88
2023/02/17 10:30:29;;;;;;;;;;;;;;;10.59;nan;101340.28;4972616;28;19977;-88
2023/02/17 10:32:59;;;;;;;;;;;;;;;10.62;nan;101342.66;4976160;28;19918;-87
2023/02/17 10:35:33;;;;;;;;;;;;;;;10.73;nan;101338.28;4993701;28;20471;-87
2023/02/17 10:38:05;;;;;;;;;;;;;;;10.81;nan;101339.25;4971651;28;19936;-87
2023/02/17 10:40:55;;;;;;;;;;;;;;;10.80;nan;101345.53;4994558;28;19917;-88
2023/02/17 10:43:23;;;;;;;;;;;;;;;10.76;nan;101349.41;4991392;28;19932;-87
2023/02/17 10:45:52;;;;;;;;;;;;;;;10.70;nan;101347.31;4970106;28;20000;-87
2023/02/17 10:48:31;;;;;;;;;;;;;;;10.64;nan;101347.81;4957991;28;19930;-87
2023/02/17 10:50:58;;;;;;;;;;;;;;;10.61;nan;101348.09;4991048;28;19972;-87
2023/02/17 10:53:27;;;;;;;;;;;;;;;10.63;nan;101343.53;4975475;28;19918;-88
2023/02/17 10:56:02;;;;;;;;;;;;;;;10.65;nan;101340.72;4953207;28;19985;-88
2023/02/17 10:58:32;;;;;;;;;;;;;;;10.68;nan;101338.66;4972971;28;20013;-88
2023/02/17 11:01:00;;;;;;;;;;;;;;;10.75;nan;101334.53;4975862;28;19917;-87
2023/02/17 11:03:29;;;;;;;;;;;;;;;10.80;nan;101334.13;4971294;28;20052;-87
2023/02/17 11:06:05;;;;;;;;;;;;;;;10.90;nan;101332.34;4974720;28;20003;-87
2023/02/17 11:08:36;;;;;;;;;;;;;;;10.98;nan;101336.94;4980667;28;19922;-86
2023/02/17 11:11:04;;;;;;;;;;;;;;;11.02;nan;101330.44;4967640;28;19925;-87
2023/02/17 11:13:37;;;;;;;;;;;;;;;11.08;nan;101326.41;4968407;28;19972;-87
2023/02/17 11:16:03;;;;;;;;;;;;;;;11.12;nan;101318.03;4961865;28;19950;-87
2023/02/17 11:18:33;;;;;;;;;;;;;;;11.23;nan;101315.28;4982513;28;19918;-87
2023/02/17 11:21:05;;;;;;;;;;;;;;;11.29;nan;101315.72;4964332;28;19918;-87
2023/02/17 11:23:33;;;;;;;;;;;;;;;11.39;nan;101308.59;4971683;28;19925;-87
2023/02/17 11:26:19;;;;;;;;;;;;;;;11.51;nan;101317.25;4970952;28;19918;-87
2023/02/17 11:28:50;;;;;;;;;;;;;;;11.55;nan;101313.38;4972069;28;19949;-87
2023/02/17 11:31:32;;;;;;;;;;;;;;;11.65;nan;101308.91;4973977;28;19965;-88
2023/02/17 11:33:58;;;;;;;;;;;;;;;11.65;nan;101309.72;4962824;28;19926;-87
2023/02/17 11:36:25;;;;;;;;;;;;;;;11.72;nan;101303.88;4967267;28;19991;-87
2023/02/17 11:38:50;;;;;;;;;;;;;;;11.72;nan;101306.53;4970595;28;21418;-87
2023/02/17 11:41:16;;;;;;;;;;;;;;;11.71;nan;101296.94;4967822;28;20426;-87
2023/02/17 11:43:58;;;;;;;;;;;;;;;11.74;nan;101297.47;4986887;28;19935;-87
2023/02/17 11:46:36;;;;;;;;;;;;;;;11.76;nan;101300.00;4969351;28;19949;-87
2023/02/17 11:49:01;;;;;;;;;;;;;;;11.82;nan;101296.75;4977687;28;20290;-87
2023/02/17 11:51:30;;;;;;;;;;;;;;;11.88;nan;101301.53;4970906;28;19917;-87
2023/02/17 11:54:14;;;;;;;;;;;;;;;11.87;nan;101298.06;4986314;28;19917;-87
2023/02/17 11:56:52;;;;;;;;;;;;;;;11.87;nan;101291.94;4978836;28;20371;-86
2023/02/17 11:59:36;;;;;;;;;;;;;;;11.95;nan;101285.91;4966989;28;19966;-86
2023/02/17 12:02:04;;;;;;;;;;;;;;;11.97;nan;101287.44;4984019;28;19968;-87
2023/02/17 12:04:31;;;;;;;;;;;;;;;12.03;nan;101292.16;4974962;28;19921;-87
2023/02/17 12:07:05;;;;;;;;;;;;;;;12.05;nan;101292.84;4984784;28;19926;-87
2023/02/17 12:09:46;;;;;;;;;;;;;;;12.04;nan;101293.84;4978701;28;19918;-86
2023/02/17 12:12:25;;;;;;;;;;;;;;;12.04;nan;101288.56;4992495;28;20016;-86
2023/02/17 12:15:09;;;;;;;;;;;;;;;12.07;nan;101288.25;4983428;28;19924;-86
2023/02/17 12:17:44;;;;;;;;;;;;;;;12.14;nan;101295.66;4974007;28;19922;-86
2023/02/17 12:20:26;;;;;;;;;;;;;;;12.13;nan;101296.63;4970200;28;19918;-86
2023/02/17 12:22:58;;;;;;;;;;;;;;;12.19;nan;101290.75;4970568;28;20109;-86
2023/02/17 12:25:25;;;;;;;;;;;;;;;12.24;nan;101297.28;4969537;28;19972;-86
2023/02/17 12:28:08;;;;;;;;;;;;;;;12.24;nan;101294.63;4979137;28;20316;-86
2023/02/17 12:30:48;;;;;;;;;;;;;;;12.30;nan;101298.53;4978590;28;19945;-86
2023/02/17 12:33:16;;;;;;;;;;;;;;;12.37;nan;101298.78;4993992;28;19922;-86
2023/02/17 12:35:53;;;;;;;;;;;;;;;12.35;nan;101296.28;4976614;28;19932;-86
2023/02/17 12:38:33;;;;;;;;;;;;;;;12.48;nan;101295.97;4970356;28;19918;-87
2023/02/17 12:41:06;;;;;;;;;;;;;;;12.48;nan;101291.47;4967271;28;19925;-85
2023/02/17 12:43:38;;;;;;;;;;;;;;;12.44;nan;101294.56;4972526;28;19922;-86
2023/02/17 12:46:08;;;;;;;;;;;;;;;12.45;nan;101294.44;4977289;28;20395;-86
2023/02/17 12:48:43;;;;;;;;;;;;;;;12.49;nan;101287.88;4987556;28;19944;-86
2023/02/17 12:51:32;;;;;;;;;;;;;;;12.51;nan;101288.56;4976986;28;19940;-86
2023/02/17 12:54:02;;;;;;;;;;;;;;;12.64;nan;101282.06;4970907;28;19925;-87
2023/02/17 12:56:36;;;;;;;;;;;;;;;12.66;nan;101290.72;4988040;28;19918;-87
2023/02/17 12:59:10;;;;;;;;;;;;;;;12.69;nan;101277.16;4974916;28;20008;-86
2023/02/17 13:01:36;;;;;;;;;;;;;;;12.69;nan;101278.00;4971552;28;19924;-87
2023/02/17 13:04:02;;;;;;;;;;;;;;;12.73;nan;101270.59;4987972;28;19917;-86
2023/02/17 13:06:35;;;;;;;;;;;;;;;12.86;nan;101271.06;4990449;28;19925;-86
2023/02/17 13:09:19;;;;;;;;;;;;;;;12.96;nan;101263.03;4986134;28;19925;-86